Yarnell, AZ

3:26 PM MST on December 26, 2014 (GMT -0700)
Yarnell Proper | Change Station
CLOSE
Current Station
Personal Weather Station
Location: Yarnell, AZ
Elevation: 4760 ft
Nearby Weather Stations

Elev 4760 ft 34.22 °N, 112.75 °W | Updated 1 minute ago

Partly Cloudy
Partly Cloudy
41.9 °F
Feels Like 38 °F
N
6.3
Wind Variable Wind from NNW

Today
High -- | Low -- °F
--% Chance of Precip.
Yesterday
High -- | Low -- °F
Precip. -- in
7:35 AM 5:28 PM
Waxing Crescent, 29% visible
Pressure 29.94 in
Visibility 10.0 miles
Clouds Mostly Cloudy 6500 ft
Windchill 38 °F
Dew Point 16 °F
Humidity 34%
Rainfall 0.00 in
Snow Depth Not available.
UV 1 out of 12
Pollen .90 out of 12
Air Quality Not available.
Flu Activity Not available.
METAR KPRC 262153Z 35008KT 10SM BKN065 03/M12 A2994 RMK AO2 SLP137 T00281117

More Conditions Fewer Conditions

Pressure 29.94 in
Visibility 10.0 miles
Clouds Mostly Cloudy 6500 ft
Windchill 38 °F
Dew Point 16 °F
Humidity 34%
Rainfall 0.00 in
Snow Depth Not available.
UV 1 out of 12
Pollen .90 out of 12
Air Quality Not available.
Flu Activity Not available.
METAR KPRC 262153Z 35008KT 10SM BKN065 03/M12 A2994 RMK AO2 SLP137 T00281117

More Conditions Fewer Conditions

10-Day Weather Forecast

Almanac

Astronomy

Dec. 26, 2014 Rise Set
Actual Time
Civil Twilight
Nautical Twilight
Astronomical Twilight
Moon
Length of Visible Light
Length of Day
Tomorrow will be .
, % of the Moon is Illuminated

Today's Extremes

State Highs State Lows

Community

WunderPhotos

Upload Photos

1,780,737 photos uploaded!

WunderBlogs® & News

Nearby

Air Quality

  Air Quality AQ Index Pollutant
Not available.

Snow Depth

Station Depth Elevation

Earthquake Activity

City Distance Mag. Time & Date
Minimum magnitude displayed is 2.5.

Coastal Water Temperatures

Place Temperature

Nearby Weather Stations